»·PEaware :: ASH5986 KSBP-KPHX

ASH5986 :: KSBP-KPHX

FLIGHT INFORMATION

Flight Status: Arrived
Operator:
Mesa Airlines
More flights by this operator :: More flights under this callsign
Pilot: Brett J. (11232)
Aircraft: CANADAIR CL-600 CRJ-900
(CRJ9)
More flights by this aircraft type
Origin: KSBP San Luis Co Regl
United States
Destination: KPHX Phoenix Sky Harbor Intl
United States
More flights between these airports :: More routes between these airports
Route: MQO FLW PMD J65 BLH HYDRR1
File this flight plan on PilotEdge
Remarks: PBN / D1 NAV / RNVD1E2A1 DAT / V DOF / 170923 REG / N922SB EET / KZAB0050 RMK / NRP SIMBRIEF
Altitude:
(Current/Filed)
25,000ft
Speed:
(Current/Filed)
416kts
Departed: 22-Sep-17 08:37 PM
Arrived: 22-Sep-17 09:54 PM
Distance/Time
Traveled:
442nm/1:17
Distance/Time
To Go:
Arrived

Flight Plot

Page will automatically refresh every two minutes.

Flight plan parsing failed; only flown route is shown


Map Options




Map Legend


Flown Route
Filed Route
Departure Airport
Arrival Airport
Navaid (VOR, NDB)
Fix

Horizontal Profiles

Position Reports

Time Latitude Longitude Heading Altitude Ground
Speed
22-Sep-17 20:07 35.238776 -120.640923 343 219ft 0kts
22-Sep-17 20:08 35.238776 -120.640923 343 219ft 0kts
22-Sep-17 20:09 35.238776 -120.640923 343 219ft 0kts
22-Sep-17 20:10 35.238776 -120.640923 343 219ft 0kts
22-Sep-17 20:11 35.238776 -120.640923 343 219ft 0kts
22-Sep-17 20:12 35.238776 -120.640923 343 219ft 0kts
22-Sep-17 20:13 35.238776 -120.640923 343 219ft 0kts
22-Sep-17 20:14 35.238776 -120.640923 343 219ft 0kts
22-Sep-17 20:15 35.238776 -120.640923 343 219ft 0kts
22-Sep-17 20:16 35.238776 -120.640923 343 219ft 0kts
22-Sep-17 20:17 35.238776 -120.640923 343 219ft 0kts
22-Sep-17 20:18 35.238776 -120.640923 343 219ft 0kts
22-Sep-17 20:19 35.238776 -120.640923 343 219ft 0kts
22-Sep-17 20:20 35.238776 -120.640923 343 219ft 0kts
22-Sep-17 20:21 35.238776 -120.640923 343 219ft 0kts
22-Sep-17 20:22 35.238776 -120.640923 343 219ft 0kts
22-Sep-17 20:23 35.238776 -120.640923 343 219ft 0kts
22-Sep-17 20:24 35.238776 -120.640923 343 219ft 0kts
22-Sep-17 20:25 35.238776 -120.640923 343 219ft 0kts
22-Sep-17 20:26 35.238776 -120.640923 343 219ft 0kts
22-Sep-17 20:27 35.238776 -120.640923 343 219ft 0kts
22-Sep-17 20:28 35.238776 -120.640923 343 219ft 0kts
22-Sep-17 20:29 35.238776 -120.640923 343 219ft 0kts
22-Sep-17 20:30 35.238776 -120.640923 343 219ft 0kts
22-Sep-17 20:31 35.238776 -120.640923 343 219ft 0kts
22-Sep-17 20:32 35.238776 -120.640923 343 219ft 0kts
22-Sep-17 20:33 35.238776 -120.640923 343 219ft 0kts
22-Sep-17 20:34 35.238776 -120.640923 343 219ft 0kts
22-Sep-17 20:35 35.238776 -120.640923 343 219ft 0kts
22-Sep-17 20:36 35.238777 -120.640924 343 219ft 0kts
22-Sep-17 20:37 35.238901 -120.641403 282 219ft 9kts
22-Sep-17 20:38 35.237484 -120.639376 124 219ft 16kts
22-Sep-17 20:39 35.235142 -120.635118 123 219ft 14kts
22-Sep-17 20:40 35.233220 -120.632638 208 219ft 4kts
22-Sep-17 20:41 35.238791 -120.643514 304 219ft 137kts
22-Sep-17 20:42 35.262625 -120.687833 304 3370ft 153kts
22-Sep-17 20:43 35.292875 -120.744080 304 4775ft 238kts
22-Sep-17 20:44 35.337975 -120.807864 342 7671ft 262kts
22-Sep-17 20:45 35.397062 -120.758705 81 9788ft 300kts
22-Sep-17 20:46 35.365978 -120.663526 116 12678ft 312kts
22-Sep-17 20:47 35.327027 -120.558103 111 14449ft 360kts
22-Sep-17 20:48 35.288677 -120.440848 111 16886ft 382kts
22-Sep-17 20:49 35.246918 -120.317619 111 19205ft 399kts
22-Sep-17 20:50 35.203717 -120.189845 112 21387ft 414kts
22-Sep-17 20:51 35.158977 -120.058007 113 23332ft 427kts
22-Sep-17 20:52 35.112502 -119.921972 113 24866ft 446kts
22-Sep-17 20:53 35.068784 -119.777338 106 24933ft 459kts
22-Sep-17 20:54 35.033892 -119.625412 107 24928ft 471kts
22-Sep-17 20:55 34.993357 -119.473871 108 24918ft 463kts
22-Sep-17 20:56 34.952438 -119.324747 108 24925ft 467kts
22-Sep-17 20:57 34.911118 -119.173639 108 24936ft 469kts
22-Sep-17 20:58 34.870074 -119.022356 108 24955ft 472kts
22-Sep-17 20:59 34.828502 -118.870907 109 24973ft 471kts
22-Sep-17 21:00 34.786198 -118.720157 110 24981ft 468kts
22-Sep-17 21:01 34.744562 -118.570677 110 24976ft 466kts
22-Sep-17 21:02 34.703349 -118.421782 110 24941ft 464kts
22-Sep-17 21:03 34.661412 -118.273320 110 24917ft 462kts
22-Sep-17 21:04 34.619137 -118.126324 110 24913ft 461kts
22-Sep-17 21:05 34.577125 -117.979434 112 24912ft 460kts
22-Sep-17 21:06 34.534044 -117.833057 110 24911ft 462kts
22-Sep-17 21:07 34.491650 -117.685935 111 24918ft 463kts
22-Sep-17 21:08 34.448560 -117.538075 111 24913ft 464kts
22-Sep-17 21:09 34.405290 -117.390652 111 24911ft 465kts
22-Sep-17 21:10 34.362025 -117.242968 111 24905ft 466kts
22-Sep-17 21:11 34.318143 -117.094995 111 24942ft 466kts
22-Sep-17 21:12 34.274275 -116.947691 112 24991ft 466kts
22-Sep-17 21:13 34.230280 -116.800640 112 25010ft 466kts
22-Sep-17 21:14 34.185930 -116.653086 112 24975ft 465kts
22-Sep-17 21:15 34.142091 -116.507188 112 24920ft 460kts
22-Sep-17 21:16 34.098134 -116.362491 112 24875ft 456kts
22-Sep-17 21:17 34.054700 -116.219980 112 24866ft 450kts
22-Sep-17 21:18 34.011357 -116.078698 112 24852ft 451kts
22-Sep-17 21:19 33.967299 -115.935637 112 24832ft 457kts
22-Sep-17 21:20 33.922703 -115.791565 113 24817ft 462kts
22-Sep-17 21:21 33.877598 -115.645992 113 24805ft 467kts
22-Sep-17 21:22 33.831499 -115.498921 114 24800ft 469kts
22-Sep-17 21:23 33.785708 -115.353012 114 24791ft 465kts
22-Sep-17 21:24 33.739874 -115.207865 116 24782ft 462kts
22-Sep-17 21:25 33.694273 -115.063947 116 24774ft 461kts
22-Sep-17 21:26 33.648499 -114.920543 117 24767ft 462kts
22-Sep-17 21:27 33.601619 -114.775099 119 24763ft 469kts
22-Sep-17 21:28 33.566089 -114.621645 108 24764ft 486kts
22-Sep-17 21:29 33.538996 -114.462509 110 24762ft 486kts
22-Sep-17 21:30 33.507231 -114.307267 111 24763ft 473kts
22-Sep-17 21:31 33.477580 -114.154503 111 24764ft 455kts
22-Sep-17 21:32 33.449383 -114.013801 113 24758ft 432kts
22-Sep-17 21:33 33.419502 -113.872243 112 24760ft 444kts
22-Sep-17 21:34 33.392191 -113.729966 112 23441ft 428kts
22-Sep-17 21:35 33.363637 -113.593360 112 21937ft 417kts
22-Sep-17 21:36 33.336825 -113.461126 110 20817ft 401kts
22-Sep-17 21:37 33.314818 -113.331452 107 19818ft 398kts
22-Sep-17 21:38 33.292514 -113.201764 107 18443ft 395kts
22-Sep-17 21:39 33.274722 -113.074929 105 16939ft 366kts
22-Sep-17 21:40 33.274733 -112.956883 91 15437ft 354kts
22-Sep-17 21:41 33.280211 -112.840842 93 13937ft 332kts
22-Sep-17 21:42 33.288219 -112.733793 87 12928ft 319kts
22-Sep-17 21:43 33.298854 -112.630525 88 12090ft 311kts
22-Sep-17 21:44 33.308145 -112.526691 87 11302ft 313kts
22-Sep-17 21:45 33.317605 -112.426912 87 11025ft 294kts
22-Sep-17 21:46 33.326742 -112.324522 88 11021ft 313kts
22-Sep-17 21:47 33.335303 -112.221834 87 10605ft 305kts
22-Sep-17 21:48 33.344447 -112.125263 85 9167ft 283kts
22-Sep-17 21:49 33.347541 -112.040155 94 8877ft 243kts
22-Sep-17 21:50 33.345579 -111.955896 92 7408ft 246kts
22-Sep-17 21:51 33.346175 -111.873861 90 5721ft 249kts
22-Sep-17 21:52 33.355972 -111.795291 45 4110ft 233kts
22-Sep-17 21:53 33.410167 -111.795929 310 4007ft 193kts
22-Sep-17 21:54 33.438683 -111.850013 289 3874ft 188kts
22-Sep-17 21:55 33.440842 -111.914853 268 2568ft 187kts
22-Sep-17 21:56 33.440821 -111.966499 268 1585ft 138kts
22-Sep-17 21:57 33.440832 -112.007002 270 1142ft 48kts
22-Sep-17 21:58 33.440015 -112.011013 202 1142ft 2kts
22-Sep-17 21:59 33.439002 -112.009059 90 1142ft 18kts
22-Sep-17 22:00 33.439004 -112.002468 90 1142ft 20kts
22-Sep-17 22:01 33.439000 -111.996440 89 1142ft 16kts
22-Sep-17 22:02 33.437013 -111.995100 89 1142ft 5kts
22-Sep-17 22:03 33.437014 -111.994973 89 1142ft 0kts
22-Sep-17 22:04 33.437013 -111.995067 89 1142ft 0kts
22-Sep-17 22:05 33.437013 -111.995054 89 1142ft 0kts

Navigation Log

Ident Type
Flight plan parsing failed, navigation log unavailable